Time;durP1;ratioP1;P1;durP2;ratioP2;P2;SDS_P1;SDS_P2;PMS_P1;PMS_P2;Temp;Humidity;BMP_temperature;BMP_pressure;BME280_temperature;BME280_humidity;BME280_pressure;Samples;Min_cycle;Max_cycle;Signal;HPM_P1;HPM_P2
2022/09/19 00:00:42;;;;;;;4.03;3.10;;;;;;;8.05;100.00;97685.16;5114482;27;20023;-81
2022/09/19 00:03:08;;;;;;;3.70;2.78;;;;;;;7.82;100.00;97656.13;5114253;27;20493;-80
2022/09/19 00:05:38;;;;;;;6.63;3.03;;;;;;;7.77;100.00;97655.50;5114042;27;20031;-79
2022/09/19 00:08:03;;;;;;;4.95;2.70;;;;;;;7.76;100.00;97667.94;5131565;27;20035;-74
2022/09/19 00:10:29;;;;;;;4.10;2.13;;;;;;;7.68;100.00;97662.16;5113540;27;20402;-74
2022/09/19 00:12:55;;;;;;;3.95;2.35;;;;;;;7.64;100.00;97663.22;5097289;27;20031;-74
2022/09/19 00:15:22;;;;;;;2.72;2.00;;;;;;;7.60;100.00;97657.19;5113981;27;20039;-74
2022/09/19 00:17:50;;;;;;;3.22;2.00;;;;;;;7.64;100.00;97665.88;5096957;27;20031;-74
2022/09/19 00:20:16;;;;;;;3.28;2.25;;;;;;;7.47;100.00;97655.19;5113840;27;20035;-75
2022/09/19 00:24:45;;;;;;;5.65;2.10;;;;;;;7.48;100.00;97656.91;5113524;27;20034;-75
2022/09/19 00:25:28;;;;;;;4.60;2.25;;;;;;;7.59;100.00;97686.53;5116537;27;20063;-76
2022/09/19 00:27:54;;;;;;;4.22;2.50;;;;;;;7.57;100.00;97672.44;5097005;27;20023;-75
2022/09/19 00:30:20;;;;;;;7.45;2.20;;;;;;;7.48;100.00;97662.22;5096568;27;20421;-74
2022/09/19 00:32:46;;;;;;;2.45;2.05;;;;;;;7.44;100.00;97660.66;5096683;27;20031;-73
2022/09/19 00:35:12;;;;;;;2.50;2.30;;;;;;;7.53;100.00;97673.53;5096534;27;20031;-74
2022/09/19 00:37:38;;;;;;;2.92;2.20;;;;;;;7.60;100.00;97686.47;5113199;27;20034;-74
2022/09/19 00:40:04;;;;;;;4.70;2.33;;;;;;;7.61;100.00;97680.22;5113462;27;20022;-74
2022/09/19 00:42:30;;;;;;;4.30;2.45;;;;;;;7.51;100.00;97673.59;5096388;27;20433;-75
2022/09/19 00:45:06;;;;;;;3.65;2.50;;;;;;;7.48;100.00;97664.88;5096593;27;20052;-74
2022/09/19 00:47:39;;;;;;;3.88;2.65;;;;;;;7.60;100.00;97677.59;5096098;27;20035;-74
2022/09/19 00:50:21;;;;;;;7.38;2.90;;;;;;;7.51;100.00;97668.28;5096450;27;20470;-75
2022/09/19 00:52:59;;;;;;;3.30;2.63;;;;;;;7.43;100.00;97664.25;5096378;28;20027;-75
2022/09/19 00:55:25;;;;;;;3.42;2.15;;;;;;;7.43;100.00;97669.56;5096167;28;20042;-75
2022/09/19 00:57:58;;;;;;;3.38;2.35;;;;;;;7.42;100.00;97673.16;5096263;28;20034;-74
2022/09/19 01:00:23;;;;;;;3.45;2.45;;;;;;;7.38;100.00;97674.28;5112896;28;20468;-74
2022/09/19 01:02:49;;;;;;;2.97;2.58;;;;;;;7.19;100.00;97662.75;5096112;28;20054;-74
2022/09/19 01:05:16;;;;;;;5.20;2.60;;;;;;;7.08;100.00;97658.78;5113327;28;20031;-74
2022/09/19 01:07:48;;;;;;;5.28;3.50;;;;;;;7.14;100.00;97670.09;5113067;28;20399;-74
2022/09/19 01:10:37;;;;;;;7.35;2.95;;;;;;;7.11;100.00;97660.44;5113211;28;20221;-74
2022/09/19 01:13:15;;;;;;;7.50;3.10;;;;;;;7.17;100.00;97675.28;5113113;28;20506;-74
2022/09/19 01:16:01;;;;;;;7.60;3.08;;;;;;;7.08;100.00;97672.09;5096079;28;20047;-75
2022/09/19 01:18:32;;;;;;;5.60;2.70;;;;;;;7.23;100.00;97681.16;5113063;27;20404;-74
2022/09/19 01:21:39;;;;;;;4.82;2.83;;;;;;;7.17;100.00;97662.81;5117315;27;20042;-75
2022/09/19 01:24:08;;;;;;;6.43;2.88;;;;;;;7.22;100.00;97681.22;5117078;27;20079;-74
2022/09/19 01:26:44;;;;;;;6.38;2.60;;;;;;;7.20;100.00;97678.63;5116935;27;20501;-74
2022/09/19 01:29:17;;;;;;;5.47;2.72;;;;;;;6.92;100.00;97657.75;5100158;27;20060;-74
2022/09/19 01:31:45;;;;;;;7.53;3.10;;;;;;;7.18;100.00;97699.13;5117136;27;20528;-74
2022/09/19 01:34:20;;;;;;;4.85;3.55;;;;;;;7.19;100.00;97697.34;5100025;27;20046;-75
2022/09/19 01:36:52;;;;;;;6.15;3.13;;;;;;;7.04;100.00;97681.13;5099835;27;20106;-75
2022/09/19 01:39:23;;;;;;;4.28;3.03;;;;;;;7.01;100.00;97694.56;5100230;27;20030;-75
2022/09/19 01:41:53;;;;;;;5.57;3.42;;;;;;;7.09;100.00;97697.75;5117396;27;20090;-75
2022/09/19 01:44:22;;;;;;;7.10;3.63;;;;;;;7.09;100.00;97691.56;5116800;27;20015;-73
2022/09/19 01:47:08;;;;;;;7.60;3.28;;;;;;;7.22;100.00;97697.19;5099796;27;20019;-74
2022/09/19 01:49:41;;;;;;;4.57;2.83;;;;;;;7.16;100.00;97695.69;5116566;27;20043;-74
2022/09/19 01:52:48;;;;;;;6.82;3.13;;;;;;;7.02;100.00;97680.34;5133636;27;20172;-75
2022/09/19 01:55:20;;;;;;;3.92;2.60;;;;;;;6.86;100.00;97668.66;5134916;27;20031;-76
2022/09/19 01:57:54;;;;;;;3.88;2.55;;;;;;;6.80;100.00;97682.25;5116548;27;20027;-74
2022/09/19 02:00:22;;;;;;;4.97;3.00;;;;;;;6.79;100.00;97679.66;5116432;27;20035;-75
2022/09/19 02:03:17;;;;;;;5.45;3.03;;;;;;;6.90;100.00;97688.88;5116572;27;20110;-75
2022/09/19 02:06:05;;;;;;;9.07;4.63;;;;;;;6.92;100.00;97700.31;5109025;27;20471;-75
2022/09/19 02:08:53;;;;;;;5.13;3.63;;;;;;;6.91;100.00;97695.06;5134914;27;20023;-75
2022/09/19 02:11:21;;;;;;;9.38;4.00;;;;;;;6.83;100.00;97694.56;5134592;27;20027;-74
2022/09/19 02:13:55;;;;;;;5.43;3.90;;;;;;;6.85;100.00;97706.84;5116402;27;20451;-78
2022/09/19 02:16:24;;;;;;;5.30;3.30;;;;;;;6.92;100.00;97710.09;5099142;27;20038;-75
2022/09/19 02:19:02;;;;;;;3.75;2.78;;;;;;;6.73;100.00;97674.63;5133316;27;20114;-75
2022/09/19 02:21:37;;;;;;;3.70;3.15;;;;;;;6.78;100.00;97692.09;5099302;27;20048;-76
2022/09/19 02:24:06;;;;;;;6.43;3.30;;;;;;;6.57;100.00;97674.44;5099557;27;20145;-75
2022/09/19 02:26:33;;;;;;;4.40;3.17;;;;;;;6.60;100.00;97686.72;5116118;27;20016;-76
2022/09/19 02:28:59;;;;;;;5.05;3.78;;;;;;;6.54;100.00;97674.56;5116103;27;20027;-75
2022/09/19 02:31:26;;;;;;;5.97;3.90;;;;;;;6.46;100.00;97682.03;5097673;27;20026;-76
2022/09/19 02:33:54;;;;;;;9.07;3.65;;;;;;;6.51;100.00;97690.66;5099042;27;20037;-76
2022/09/19 02:36:54;;;;;;;6.40;4.18;;;;;;;6.52;100.00;97689.75;5115851;27;20105;-78
2022/09/19 02:39:26;;;;;;;6.07;3.50;;;;;;;6.45;100.00;97688.25;5115806;27;20027;-78
2022/09/19 02:42:17;;;;;;;4.43;3.20;;;;;;;6.41;100.00;97689.31;5116103;27;20102;-79
2022/09/19 02:44:52;;;;;;;3.15;2.60;;;;;;;6.41;100.00;97691.97;5098628;27;20444;-79
2022/09/19 02:47:28;;;;;;;4.97;3.80;;;;;;;6.34;100.00;97701.13;5115758;27;20031;-78
2022/09/19 02:50:02;;;;;;;10.48;3.58;;;;;;;6.43;100.00;97701.59;5115735;27;20035;-79
2022/09/19 02:52:30;;;;;;;8.93;4.13;;;;;;;6.33;100.00;97689.66;5115499;27;20047;-76
2022/09/19 02:55:02;;;;;;;6.65;4.03;;;;;;;6.38;100.00;97697.41;5098395;27;20048;-76
2022/09/19 02:57:29;;;;;;;7.18;3.90;;;;;;;6.29;100.00;97696.03;5115599;27;20026;-75
2022/09/19 02:59:58;;;;;;;6.80;4.43;;;;;;;6.24;100.00;97691.84;5115855;27;20075;-75
2022/09/19 03:02:37;;;;;;;10.35;4.63;;;;;;;6.18;100.00;97705.38;5098670;27;20031;-75
2022/09/19 03:05:13;;;;;;;5.47;4.13;;;;;;;6.24;100.00;97715.75;5098618;27;20027;-76
2022/09/19 03:08:00;;;;;;;5.18;3.60;;;;;;;6.21;100.00;97707.91;5098518;27;20401;-77
2022/09/19 03:10:32;;;;;;;5.45;3.58;;;;;;;6.20;100.00;97709.69;5115120;27;20098;-76
2022/09/19 03:13:06;;;;;;;5.90;3.50;;;;;;;6.20;100.00;97708.81;5098319;27;20633;-76
2022/09/19 03:15:36;;;;;;;8.50;4.68;;;;;;;6.27;100.00;97715.63;5098269;27;20140;-76
2022/09/19 03:18:04;;;;;;;6.72;4.20;;;;;;;6.28;100.00;97722.63;5098024;27;20110;-75
2022/09/19 03:20:37;;;;;;;5.93;3.75;;;;;;;6.22;100.00;97728.22;5115260;27;20027;-76
2022/09/19 03:23:07;;;;;;;6.07;3.40;;;;;;;6.22;100.00;97731.72;5098133;27;20050;-77
2022/09/19 03:25:34;;;;;;;4.68;3.42;;;;;;;6.29;100.00;97729.69;5115223;27;20474;-75
2022/09/19 03:28:00;;;;;;;4.50;3.45;;;;;;;6.33;100.00;97720.66;5114977;27;20474;-75
2022/09/19 03:30:25;;;;;;;7.75;4.13;;;;;;;6.19;100.00;97712.41;5097803;27;20033;-74
2022/09/19 03:32:51;;;;;;;5.93;3.90;;;;;;;6.17;100.00;97717.78;5097979;27;20023;-75
2022/09/19 03:35:20;;;;;;;7.57;4.45;;;;;;;6.16;100.00;97728.47;5097951;27;20114;-77
2022/09/19 03:37:45;;;;;;;10.93;3.90;;;;;;;6.18;100.00;97732.81;5114671;27;20019;-75
2022/09/19 03:40:11;;;;;;;17.25;4.20;;;;;;;6.18;100.00;97737.25;5115277;27;20138;-75
2022/09/19 03:42:37;;;;;;;7.78;4.32;;;;;;;6.23;100.00;97737.91;5114439;27;20031;-75
2022/09/19 03:45:06;;;;;;;6.72;4.03;;;;;;;6.19;100.00;97736.31;5114499;27;20042;-76
2022/09/19 03:47:32;;;;;;;9.07;4.47;;;;;;;6.25;100.00;97736.03;5097476;27;20027;-75
2022/09/19 03:49:58;;;;;;;10.95;4.97;;;;;;;6.32;100.00;97730.44;5097484;27;20057;-74
2022/09/19 03:52:27;;;;;;;12.40;6.18;;;;;;;6.34;100.00;97722.38;5097776;27;20050;-76
2022/09/19 03:54:53;;;;;;;10.90;5.70;;;;;;;6.23;100.00;97703.38;5113650;27;20114;-75
2022/09/19 03:57:19;;;;;;;7.55;4.20;;;;;;;6.13;100.00;97707.34;5114576;27;20023;-76
2022/09/19 03:59:45;;;;;;;7.40;4.30;;;;;;;6.02;100.00;97705.16;5097253;27;20039;-75
2022/09/19 04:02:11;;;;;;;6.38;4.50;;;;;;;6.04;100.00;97711.25;5097348;27;20402;-76
2022/09/19 04:04:37;;;;;;;15.32;5.20;;;;;;;6.17;100.00;97730.19;5097311;27;20488;-75
2022/09/19 04:07:03;;;;;;;8.98;4.75;;;;;;;6.19;100.00;97723.03;5096901;27;20121;-75
2022/09/19 04:09:29;;;;;;;9.25;5.20;;;;;;;6.03;100.00;97701.56;5114094;27;20027;-77
2022/09/19 04:11:59;;;;;;;8.20;4.47;;;;;;;5.98;100.00;97691.13;5114175;27;20530;-76
2022/09/19 04:14:26;;;;;;;8.77;3.88;;;;;;;5.94;100.00;97694.84;5097400;27;20038;-75
2022/09/19 04:16:52;;;;;;;7.78;4.45;;;;;;;5.93;100.00;97705.53;5113776;27;20035;-76
2022/09/19 04:19:18;;;;;;;8.15;4.10;;;;;;;5.90;100.00;97687.94;5096894;27;20538;-76
2022/09/19 04:21:44;;;;;;;10.35;4.03;;;;;;;5.85;100.00;97687.25;5096956;27;20084;-75
2022/09/19 04:24:10;;;;;;;10.05;3.80;;;;;;;5.97;100.00;97705.34;5096719;27;20047;-74
2022/09/19 04:26:36;;;;;;;8.15;3.97;;;;;;;5.95;100.00;97688.63;5113705;27;20114;-76
2022/09/19 04:29:03;;;;;;;5.47;3.42;;;;;;;6.00;100.00;97696.38;5096675;27;20574;-76
2022/09/19 04:31:39;;;;;;;10.25;5.50;;;;;;;6.14;100.00;97717.06;5113866;27;20118;-76
2022/09/19 04:34:13;;;;;;;4.93;3.65;;;;;;;5.94;100.00;97697.50;5114837;27;20031;-76
2022/09/19 04:36:39;;;;;;;6.35;4.03;;;;;;;6.00;100.00;97704.34;5113257;27;20068;-75
2022/09/19 04:39:06;;;;;;;29.92;4.57;;;;;;;6.09;100.00;97701.28;5113562;27;20030;-76
2022/09/19 04:41:36;;;;;;;6.90;3.80;;;;;;;6.16;100.00;97702.78;5097049;27;20015;-76
2022/09/19 04:44:06;;;;;;;7.82;4.03;;;;;;;6.38;100.00;97723.97;5111165;27;20031;-88
2022/09/19 04:46:32;;;;;;;7.40;4.32;;;;;;;6.39;100.00;97709.78;5101011;27;20101;-83
2022/09/19 04:48:59;;;;;;;11.10;5.47;;;;;;;6.60;100.00;97734.56;5132974;27;20019;-82
2022/09/19 04:51:25;;;;;;;17.65;6.15;;;;;;;6.47;100.00;97691.72;5097908;27;20049;-82
2022/09/19 04:53:52;;;;;;;13.18;5.38;;;;;;;6.67;100.00;97710.31;5112591;28;20253;-75
2022/09/19 04:56:18;;;;;;;20.08;6.60;;;;;;;6.76;100.00;97723.22;5096421;28;20474;-79
2022/09/19 04:58:45;;;;;;;17.25;6.72;;;;;;;6.72;100.00;97704.78;5096564;28;20030;-76
2022/09/19 05:01:11;;;;;;;12.65;5.80;;;;;;;6.65;100.00;97692.69;5096168;28;20031;-75
2022/09/19 05:03:37;;;;;;;23.63;6.93;;;;;;;6.73;100.00;97702.06;5096584;28;20037;-75
2022/09/19 05:06:05;;;;;;;14.50;6.82;;;;;;;6.91;100.00;97719.88;5132040;28;20023;-76
2022/09/19 05:08:32;;;;;;;13.15;5.55;;;;;;;6.99;100.00;97717.72;5113397;28;20034;-76
2022/09/19 05:11:02;;;;;;;14.95;5.45;;;;;;;7.11;100.00;97721.59;5096051;28;20023;-76
2022/09/19 05:13:30;;;;;;;22.52;7.05;;;;;;;7.28;100.00;97724.38;5113423;28;20026;-75
2022/09/19 05:15:57;;;;;;;23.40;10.57;;;;;;;7.55;100.00;97733.75;5113499;28;20138;-76
2022/09/19 05:18:23;;;;;;;24.33;11.02;;;;;;;7.61;100.00;97729.91;5113269;28;20019;-75
2022/09/19 05:20:50;;;;;;;25.98;10.55;;;;;;;7.73;100.00;97725.81;5096353;28;20021;-75
2022/09/19 05:23:15;;;;;;;19.50;9.23;;;;;;;7.84;100.00;97724.38;5113208;28;20126;-76
2022/09/19 05:25:41;;;;;;;11.23;6.65;;;;;;;8.03;100.00;97725.19;5113564;28;20470;-76
2022/09/19 05:28:08;;;;;;;17.92;7.82;;;;;;;9.34;100.00;97814.53;5113402;28;20025;-77
2022/09/19 05:30:38;;;;;;;7.80;4.88;;;;;;;11.96;93.89;97789.34;5113498;28;20417;-76
2022/09/19 05:33:04;;;;;;;11.75;5.10;;;;;;;13.76;77.81;97685.66;5113350;28;20027;-76
2022/09/19 05:35:30;;;;;;;7.68;4.05;;;;;;;15.04;71.12;97626.53;5096034;28;20038;-75
2022/09/19 05:37:57;;;;;;;5.22;3.70;;;;;;;16.43;63.87;97567.47;5096250;28;20406;-76
2022/09/19 05:40:26;;;;;;;11.25;4.40;;;;;;;17.41;60.69;97518.25;5113609;28;20398;-77
2022/09/19 05:42:55;;;;;;;7.18;5.10;;;;;;;17.98;56.64;97478.78;5113164;28;20406;-77
2022/09/19 05:45:20;;;;;;;9.55;5.72;;;;;;;19.39;54.48;97480.47;5113891;28;20460;-76
2022/09/19 05:47:46;;;;;;;3.95;3.50;;;;;;;20.17;50.56;97431.88;5096233;28;20105;-76
2022/09/19 05:50:14;;;;;;;4.47;3.35;;;;;;;21.80;47.46;97419.84;5131691;28;20023;-75
2022/09/19 05:55:28;;;;;;;10.52;5.15;;;;;;;23.18;43.05;97353.22;5116044;28;20042;-77
2022/09/19 05:57:56;;;;;;;6.53;3.53;;;;;;;23.58;40.96;97345.84;5096374;28;20022;-75
2022/09/19 06:00:25;;;;;;;11.13;3.10;;;;;;;23.79;41.54;97345.16;5113406;28;20027;-75
2022/09/19 06:03:02;;;;;;;31.42;23.15;;;;;;;23.65;39.52;97306.69;5113076;28;20110;-76
2022/09/19 06:05:33;;;;;;;9.23;3.10;;;;;;;21.74;42.32;97288.94;5114735;27;20464;-75
2022/09/19 06:07:59;;;;;;;13.05;5.25;;;;;;;21.48;43.89;97292.69;5099897;27;20021;-76
2022/09/19 06:10:27;;;;;;;7.03;3.20;;;;;;;22.08;42.42;97295.94;5116707;27;20110;-77
2022/09/19 06:12:53;;;;;;;4.95;3.53;;;;;;;23.08;40.60;97291.66;5116648;27;20440;-76
2022/09/19 06:15:19;;;;;;;6.93;3.03;;;;;;;23.73;39.23;97287.50;5116714;27;20406;-74
2022/09/19 06:17:48;;;;;;;8.80;3.85;;;;;;;23.95;38.52;97263.91;5116525;27;20027;-78
2022/09/19 06:20:14;;;;;;;4.53;2.90;;;;;;;23.69;38.99;97258.00;5117343;27;20088;-75
2022/09/19 06:22:41;;;;;;;10.82;4.05;;;;;;;24.60;37.80;97265.97;5116676;27;20395;-76
2022/09/19 06:25:07;;;;;;;5.20;3.88;;;;;;;24.77;37.23;97257.38;5116869;27;20030;-77
2022/09/19 06:27:33;;;;;;;6.38;4.68;;;;;;;25.19;36.98;97242.13;5116769;27;20046;-77
2022/09/19 06:29:58;;;;;;;5.10;4.15;;;;;;;25.58;36.39;97258.16;5099353;27;20482;-76
2022/09/19 06:32:24;;;;;;;6.38;3.65;;;;;;;26.12;35.42;97241.94;5099645;27;20031;-76
2022/09/19 06:34:49;;;;;;;8.57;4.40;;;;;;;26.33;34.94;97242.78;5116386;27;20030;-76
2022/09/19 06:37:16;;;;;;;4.72;3.25;;;;;;;26.48;35.05;97241.81;5116392;27;20053;-77
2022/09/19 06:39:41;;;;;;;6.78;4.13;;;;;;;26.92;33.57;97236.78;5099523;27;20042;-74
2022/09/19 06:42:07;;;;;;;9.07;5.25;;;;;;;25.86;35.38;97213.31;5116398;27;20023;-76
2022/09/19 06:44:33;;;;;;;8.27;6.32;;;;;;;26.42;34.45;97225.09;5116315;27;20059;-76
2022/09/19 06:46:59;;;;;;;10.63;6.50;;;;;;;26.31;34.49;97211.97;5099215;27;20061;-76
2022/09/19 06:49:25;;;;;;;13.07;6.60;;;;;;;26.62;34.23;97207.91;5134457;27;20405;-76
2022/09/19 06:51:51;;;;;;;15.30;10.00;;;;;;;26.39;34.21;97191.75;5116251;27;20034;-77
2022/09/19 06:54:17;;;;;;;8.05;4.95;;;;;;;26.27;33.80;97194.19;5099421;27;20027;-77
2022/09/19 06:56:42;;;;;;;7.85;4.85;;;;;;;26.60;33.84;97193.56;5099292;27;20031;-77
2022/09/19 06:59:08;;;;;;;6.45;4.18;;;;;;;25.92;34.25;97170.53;5098727;27;20034;-75
2022/09/19 07:01:33;;;;;;;5.63;4.03;;;;;;;25.96;34.96;97184.69;5099285;27;20390;-76
2022/09/19 07:03:59;;;;;;;9.52;4.13;;;;;;;27.24;33.35;97186.63;5116478;27;20023;-81
2022/09/19 07:06:25;;;;;;;8.95;4.53;;;;;;;27.88;32.29;97183.31;5133653;27;20031;-81
2022/09/19 07:08:50;;;;;;;6.85;4.47;;;;;;;29.24;30.55;97191.44;5116424;27;20535;-81
2022/09/19 07:11:16;;;;;;;11.63;5.80;;;;;;;29.09;30.24;97170.72;5099559;27;20451;-81
2022/09/19 07:13:43;;;;;;;9.68;5.28;;;;;;;28.13;31.55;97158.78;5116377;27;20114;-81
2022/09/19 07:16:09;;;;;;;6.30;3.60;;;;;;;28.32;31.15;97152.38;5116207;27;20484;-81
2022/09/19 07:18:36;;;;;;;8.43;3.75;;;;;;;28.98;30.92;97161.25;5099247;27;20074;-81
2022/09/19 07:21:01;;;;;;;4.25;3.40;;;;;;;28.77;30.62;97145.03;5134640;27;20401;-79
2022/09/19 07:23:27;;;;;;;11.55;3.90;;;;;;;29.11;31.02;97147.41;5116259;27;20122;-78
2022/09/19 07:25:57;;;;;;;5.70;3.55;;;;;;;29.48;30.39;97137.41;5133950;27;20162;-77
2022/09/19 07:28:23;;;;;;;5.70;3.60;;;;;;;29.67;30.39;97146.59;5116198;27;20534;-81
2022/09/19 07:30:50;;;;;;;3.45;2.60;;;;;;;30.13;29.62;97151.72;5133857;27;20027;-80
2022/09/19 07:33:17;;;;;;;5.25;2.55;;;;;;;29.62;30.15;97139.03;5116247;27;20030;-79
2022/09/19 07:35:43;;;;;;;8.70;3.60;;;;;;;30.16;29.87;97141.09;5116685;27;20114;-81
2022/09/19 07:38:17;;;;;;;24.35;9.27;;;;;;;30.41;29.09;97143.81;5115933;27;20581;-80
2022/09/19 07:40:43;;;;;;;10.13;3.08;;;;;;;30.01;28.82;97132.31;5116640;27;20546;-81
2022/09/19 07:43:12;;;;;;;6.45;3.20;;;;;;;29.77;29.08;97120.22;5134877;27;20062;-81
2022/09/19 07:45:38;;;;;;;11.00;3.08;;;;;;;28.47;30.71;97109.78;5099110;27;20023;-82
2022/09/19 07:48:04;;;;;;;8.00;3.20;;;;;;;29.32;30.07;97124.19;5098482;27;20038;-80
2022/09/19 07:50:30;;;;;;;4.45;2.17;;;;;;;29.14;29.58;97111.13;5115399;27;20538;-80
2022/09/19 07:53:00;;;;;;;8.95;3.50;;;;;;;30.49;28.04;97119.50;5115935;27;20038;-81
2022/09/19 07:55:26;;;;;;;8.07;5.35;;;;;;;30.76;25.51;97083.28;5113441;27;20024;-79
2022/09/19 07:57:53;;;;;;;5.05;2.10;;;;;;;30.97;26.11;97091.06;5115113;27;20023;-81
2022/09/19 08:00:19;;;;;;;28.33;17.95;;;;;;;31.11;26.33;97082.34;5133380;27;20375;-82
2022/09/19 08:02:53;;;;;;;5.22;1.67;;;;;;;31.90;25.86;97089.34;5115886;27;20030;-81
2022/09/19 08:05:19;;;;;;;2.50;1.73;;;;;;;31.94;25.44;97085.00;5115106;27;20494;-80
2022/09/19 08:07:45;;;;;;;5.13;2.47;;;;;;;30.99;26.74;97075.09;5133026;27;20106;-80
2022/09/19 08:10:10;;;;;;;7.10;3.47;;;;;;;32.29;25.55;97087.78;5114644;27;20098;-80
2022/09/19 08:12:37;;;;;;;4.68;1.95;;;;;;;32.45;25.15;97075.13;5097541;27;20026;-80
2022/09/19 08:15:03;;;;;;;16.65;9.05;;;;;;;33.10;24.52;97086.75;5114732;27;20038;-79
2022/09/19 08:17:28;;;;;;;4.80;2.67;;;;;;;32.44;24.60;97063.19;5114733;27;20027;-80
2022/09/19 08:19:56;;;;;;;2.25;1.35;;;;;;;33.03;23.48;97053.59;5114852;27;20434;-79
2022/09/19 08:22:21;;;;;;;3.55;1.58;;;;;;;33.61;23.38;97067.16;5115213;27;20511;-79
2022/09/19 08:24:47;;;;;;;2.13;1.15;;;;;;;33.85;22.92;97055.88;5114395;27;20067;-76
2022/09/19 08:27:13;;;;;;;7.55;2.55;;;;;;;32.80;24.59;97047.31;5097310;27;20049;-77
2022/09/19 08:29:38;;;;;;;3.25;1.90;;;;;;;34.19;23.01;97065.88;5113831;27;20107;-76
2022/09/19 08:32:04;;;;;;;2.53;1.90;;;;;;;34.34;22.61;97046.63;5114260;27;20035;-80
2022/09/19 08:34:30;;;;;;;1.75;1.30;;;;;;;34.51;21.46;97047.41;5114099;27;20023;-81
2022/09/19 08:37:00;;;;;;;2.42;1.20;;;;;;;34.61;21.40;97035.63;5114482;27;20041;-80
2022/09/19 08:39:25;;;;;;;5.32;1.23;;;;;;;35.67;20.65;97050.66;5113783;27;20485;-76
2022/09/19 08:42:20;;;;;;;1.48;1.10;;;;;;;35.57;21.00;97029.13;5113823;27;20038;-77
2022/09/19 08:45:16;;;;;;;5.47;2.60;;;;;;;35.16;21.35;97016.75;5113842;27;20055;-77
2022/09/19 08:47:41;;;;;;;4.05;1.30;;;;;;;33.89;22.21;97012.63;5096846;27;20038;-76
2022/09/19 08:50:19;;;;;;;1.70;1.23;;;;;;;33.54;20.87;96985.16;5114111;27;20486;-80
2022/09/19 08:52:47;;;;;;;0.75;0.65;;;;;;;31.28;21.99;96955.34;5132629;27;20019;-80
2022/09/19 08:55:24;;;;;;;0.70;0.50;;;;;;;28.96;23.92;96957.63;5116943;27;20027;-82
2022/09/19 08:57:58;;;;;;;0.70;0.60;;;;;;;27.90;23.81;96942.78;5099473;27;20030;-80
2022/09/19 09:00:24;;;;;;;1.08;0.40;;;;;;;27.66;24.47;96943.53;5116858;28;20026;-81
2022/09/19 09:03:07;;;;;;;0.70;0.70;;;;;;;27.97;24.39;96949.13;5116876;28;20038;-82
2022/09/19 09:05:48;;;;;;;1.00;0.50;;;;;;;28.75;23.87;96969.03;5116130;28;20072;-80
2022/09/19 09:08:33;;;;;;;0.68;0.68;;;;;;;30.50;21.52;96974.84;5134080;28;20447;-81
2022/09/19 09:11:20;;;;;;;0.82;0.50;;;;;;;30.59;20.58;96954.09;5115808;28;20019;-81
2022/09/19 09:14:05;;;;;;;2.92;0.65;;;;;;;28.11;21.88;96914.19;5133579;28;20160;-80
2022/09/19 09:16:54;;;;;;;0.32;0.32;;;;;;;27.48;22.29;96912.31;5098987;28;20029;-80
2022/09/19 09:19:22;;;;;;;0.30;0.30;;;;;;;27.28;22.40;96926.09;5115397;28;20482;-79
2022/09/19 09:22:25;;;;;;;0.45;0.45;;;;;;;27.92;21.43;96920.59;5133964;28;20046;-82
2022/09/19 09:25:22;;;;;;;0.60;0.40;;;;;;;26.82;23.06;96904.19;5097852;28;20121;-81
2022/09/19 09:28:02;;;;;;;0.73;0.65;;;;;;;27.47;23.14;96913.38;5090317;28;20031;-81
2022/09/19 09:30:28;;;;;;;1.02;0.93;;;;;;;27.72;22.73;96906.06;5115718;28;20038;-81
2022/09/19 09:32:58;;;;;;;1.40;0.60;;;;;;;27.41;22.95;96906.78;5115586;28;20114;-80
2022/09/19 09:36:04;;;;;;;0.63;0.52;;;;;;;27.51;22.45;96906.38;5115150;28;20031;-80
2022/09/19 09:38:30;;;;;;;1.45;0.80;;;;;;;26.84;22.63;96885.59;5093007;28;20171;-81
2022/09/19 09:43:56;;;;;;;2.30;1.05;;;;;;;27.63;22.76;96882.66;5135923;27;20034;-76
2022/09/19 09:46:24;;;;;;;;;;;;;;;28.93;22.32;96915.94;5100761;27;20023;-77
2022/09/19 09:48:52;;;;;;;4.68;1.08;;;;;;;29.11;21.69;96907.69;5117148;27;19998;-78
2022/09/19 09:51:56;;;;;;;0.57;0.40;;;;;;;28.37;20.66;96869.13;5100515;27;20087;-76
2022/09/19 09:57:42;;;;;;;1.02;0.63;;;;;;;28.04;22.05;96884.97;5134064;27;20042;-77
2022/09/19 10:03:35;;;;;;;1.70;0.60;;;;;;;29.43;20.68;96895.53;5120002;27;20570;-76
2022/09/19 10:06:13;;;;;;;0.82;0.65;;;;;;;30.76;19.74;96907.31;5118042;27;20026;-76
2022/09/19 10:09:01;;;;;;;0.60;0.52;;;;;;;29.92;19.52;96880.75;5116816;27;20019;-76
2022/09/19 10:11:51;;;;;;;2.25;1.88;;;;;;;30.71;20.27;96901.66;5116575;27;20083;-76
2022/09/19 10:14:28;;;;;;;0.50;0.45;;;;;;;29.77;19.24;96862.88;5116361;27;20059;-76
2022/09/19 10:16:56;;;;;;;0.57;0.50;;;;;;;29.03;20.88;96858.41;5100100;27;20033;-76
2022/09/19 10:19:47;;;;;;;0.40;0.40;;;;;;;30.63;19.03;96882.69;5100089;27;20027;-77
2022/09/19 10:22:15;;;;;;;0.40;0.40;;;;;;;31.06;18.67;96876.88;5092714;27;20574;-76
2022/09/19 10:24:50;;;;;;;3.33;0.47;;;;;;;31.72;18.53;96872.84;5116813;27;20047;-76
2022/09/19 10:27:28;;;;;;;0.55;0.50;;;;;;;30.76;19.22;96854.84;5116196;27;20391;-75
2022/09/19 10:29:58;;;;;;;0.30;0.30;;;;;;;31.08;19.06;96877.44;5099195;27;20061;-76
2022/09/19 10:32:37;;;;;;;0.60;0.40;;;;;;;31.91;18.61;96886.25;5133635;27;20042;-76
2022/09/19 10:35:27;;;;;;;0.40;0.40;;;;;;;32.89;16.84;96885.06;5100274;27;20037;-75
2022/09/19 10:37:53;;;;;;;0.52;0.45;;;;;;;34.17;16.10;96893.94;5116106;27;20401;-75
2022/09/19 10:40:19;;;;;;;7.15;5.30;;;;;;;34.31;16.51;96878.53;5134424;27;20102;-77
2022/09/19 10:42:47;;;;;;;2.20;0.30;;;;;;;34.28;16.31;96869.88;5099052;27;20026;-78
2022/09/19 10:45:32;;;;;;;3.83;0.60;;;;;;;33.67;16.70;96855.25;5134570;27;20110;-76
2022/09/19 10:48:07;;;;;;;0.68;0.60;;;;;;;32.81;17.30;96839.22;5116077;27;20076;-76
2022/09/19 10:50:33;;;;;;;0.60;0.57;;;;;;;31.13;18.42;96816.78;5099903;27;20510;-76
2022/09/19 10:53:06;;;;;;;1.02;0.90;;;;;;;30.52;18.71;96808.91;5115437;27;20109;-77
2022/09/19 10:55:39;;;;;;;0.55;0.40;;;;;;;29.73;19.57;96806.50;5117390;27;20030;-78
2022/09/19 10:58:10;;;;;;;1.15;0.88;;;;;;;30.80;18.84;96828.41;5116454;27;20095;-77
2022/09/19 11:00:48;;;;;;;0.55;0.55;;;;;;;31.60;18.05;96828.59;5099010;27;20111;-78
2022/09/19 11:03:23;;;;;;;0.70;0.50;;;;;;;32.37;17.73;96829.84;5115463;27;20035;-78
2022/09/19 11:06:01;;;;;;;0.43;0.38;;;;;;;32.09;18.15;96814.13;5132650;27;20011;-77
2022/09/19 11:08:28;;;;;;;0.40;0.40;;;;;;;32.04;17.87;96813.19;5109225;27;20027;-78
2022/09/19 11:10:54;;;;;;;0.40;0.40;;;;;;;33.43;16.75;96839.91;5115451;27;20023;-78
2022/09/19 11:13:23;;;;;;;0.80;0.80;;;;;;;31.19;18.44;96788.19;5098309;27;20470;-78
2022/09/19 11:16:08;;;;;;;3.60;1.23;;;;;;;31.32;19.27;96798.09;5098981;27;20027;-81
2022/09/19 11:18:56;;;;;;;0.40;0.40;;;;;;;31.84;18.18;96798.94;5133916;27;20027;-80
2022/09/19 11:21:55;;;;;;;0.50;0.50;;;;;;;32.93;17.53;96803.09;5098458;27;20031;-80
2022/09/19 11:24:30;;;;;;;1.92;0.63;;;;;;;32.60;18.01;96806.75;5080249;27;20386;-80
2022/09/19 11:27:15;;;;;;;0.73;0.60;;;;;;;32.16;17.89;96786.28;5133277;27;20042;-80
2022/09/19 11:29:44;;;;;;;0.30;0.30;;;;;;;32.37;18.06;96782.78;5128906;27;20113;-80
2022/09/19 11:32:15;;;;;;;0.55;0.50;;;;;;;32.94;17.80;96790.94;5115193;27;20065;-79
2022/09/19 11:35:15;;;;;;;1.77;1.17;;;;;;;33.29;17.97;96794.22;5116376;27;20022;-79
2022/09/19 11:37:47;;;;;;;0.40;0.40;;;;;;;33.37;17.76;96791.03;5108825;27;20035;-79
2022/09/19 11:40:25;;;;;;;;;;;;;;;33.04;17.63;96783.59;5133737;27;20410;-79
2022/09/19 11:43:19;;;;;;;0.77;0.57;;;;;;;32.85;17.96;96784.13;5115754;27;19916;-79
2022/09/19 11:45:56;;;;;;;1.02;0.50;;;;;;;34.36;16.89;96808.31;5112520;27;20034;-79
2022/09/19 11:48:45;;;;;;;0.95;0.63;;;;;;;35.41;16.43;96803.84;5098294;27;20023;-80
2022/09/19 11:51:26;;;;;;;0.52;0.52;;;;;;;35.41;15.58;96787.97;5132606;27;20063;-80
2022/09/19 11:54:14;;;;;;;0.73;0.57;;;;;;;36.26;15.28;96798.63;5098856;27;20027;-79
2022/09/19 11:56:42;;;;;;;0.77;0.70;;;;;;;36.25;15.31;96793.31;5107649;27;20083;-80
2022/09/19 11:59:27;;;;;;;2.85;0.65;;;;;;;37.33;15.56;96807.84;5114956;27;20410;-79
2022/09/19 12:02:04;;;;;;;0.47;0.47;;;;;;;37.79;14.90;96806.59;5115063;27;20022;-79
2022/09/19 12:04:55;;;;;;;0.80;0.57;;;;;;;38.23;14.60;96801.09;5097562;27;20063;-80